Time;durP1;ratioP1;P1;durP2;ratioP2;P2;SDS_P1;SDS_P2;PMS_P1;PMS_P2;Temp;Humidity;BMP_temperature;BMP_pressure;BME280_temperature;BME280_humidity;BME280_pressure;Samples;Min_cycle;Max_cycle;Signal;HPM_P1;HPM_P2
2022/12/08 00:01:09;;;;;;;;;56.50;46.00;;;;;8.51;72.29;101064.00;5015818;28;47327;-72
2022/12/08 00:03:34;;;;;;;;;53.25;43.25;;;;;8.89;72.13;101119.03;4998358;28;45428;-71
2022/12/08 00:11:29;;;;;;;;;56.75;45.50;;;;;8.94;72.40;101103.72;5015292;28;45801;-72
2022/12/08 00:13:55;;;;;;;;;56.00;45.75;;;;;8.61;72.11;101037.88;4998010;28;45316;-71
2022/12/08 00:16:20;;;;;;;;;55.25;43.00;;;;;8.93;72.18;101091.34;5016105;28;45521;-71
2022/12/08 00:18:46;;;;;;;;;56.00;45.50;;;;;8.91;71.83;101093.22;5015871;28;45795;-72
2022/12/08 00:21:11;;;;;;;;;56.25;47.00;;;;;8.89;71.66;101089.75;5015616;28;46094;-72
2022/12/08 00:23:36;;;;;;;;;53.25;43.75;;;;;8.81;71.70;101074.16;5015362;28;45302;-72
2022/12/08 00:26:03;;;;;;;;;54.75;42.25;;;;;8.84;71.51;101079.34;4997771;28;45645;-71
2022/12/08 00:28:30;;;;;;;;;58.25;46.00;;;;;8.85;71.72;101077.53;5015430;28;45268;-71
2022/12/08 00:30:55;;;;;;;;;55.75;43.75;;;;;8.84;72.06;101083.78;5015673;28;45965;-72
2022/12/08 00:33:20;;;;;;;;;57.25;47.25;;;;;8.71;72.53;101059.56;5015517;28;45429;-71
2022/12/08 00:35:46;;;;;;;;;51.50;44.25;;;;;8.77;72.39;101063.72;5015469;28;45431;-72
2022/12/08 00:38:11;;;;;;;;;61.00;48.25;;;;;8.82;72.69;101078.53;5015302;28;45263;-73
2022/12/08 00:40:36;;;;;;;;;52.25;45.25;;;;;8.39;72.80;101009.56;5015021;28;45487;-73
2022/12/08 00:43:02;;;;;;;;;59.75;46.50;;;;;8.86;72.77;101071.28;5015511;28;45409;-73
2022/12/08 00:45:27;;;;;;;;;59.00;47.50;;;;;8.91;72.41;101071.94;5015666;28;46028;-73
2022/12/08 00:47:52;;;;;;;;;61.00;46.50;;;;;8.88;72.33;101067.63;4997232;28;45471;-73
2022/12/08 00:50:18;;;;;;;;;61.50;50.25;;;;;8.72;72.78;101042.69;5015118;28;46055;-73
2022/12/08 00:52:43;;;;;;;;;58.50;47.25;;;;;8.81;72.75;101050.19;5015009;28;45347;-72
2022/12/08 00:55:09;;;;;;;;;56.50;46.00;;;;;8.65;72.82;101018.16;5015477;28;45480;-73
2022/12/08 00:57:34;;;;;;;;;55.25;45.50;;;;;8.09;72.90;100932.94;4997516;28;45404;-73
2022/12/08 00:59:59;;;;;;;;;53.75;44.50;;;;;8.78;72.61;101057.47;5014656;28;45347;-73
2022/12/08 01:02:25;;;;;;;;;61.50;49.50;;;;;8.36;72.88;100984.91;5014997;28;45398;-72
2022/12/08 01:04:50;;;;;;;;;58.00;47.50;;;;;8.72;72.78;101045.34;5015226;28;45280;-72
2022/12/08 01:07:15;;;;;;;;;55.50;44.25;;;;;8.71;72.41;101035.63;5015204;28;45391;-73
2022/12/08 01:09:41;;;;;;;;;51.50;42.00;;;;;8.68;72.12;101043.75;4997414;28;46306;-72
2022/12/08 01:12:07;;;;;;;;;55.00;46.00;;;;;8.65;71.98;101043.88;5015527;28;45507;-73
2022/12/08 01:14:32;;;;;;;;;56.50;43.25;;;;;8.64;71.65;101048.34;5014751;28;45487;-73
2022/12/08 01:16:58;;;;;;;;;57.25;46.25;;;;;8.27;71.88;100991.50;5014759;28;45350;-73
2022/12/08 01:19:25;;;;;;;;;56.25;46.25;;;;;8.49;72.07;101027.75;4996924;28;46558;-72
2022/12/08 01:21:50;;;;;;;;;58.50;47.50;;;;;8.48;72.44;101036.69;5014206;28;45421;-73
2022/12/08 01:24:18;;;;;;;;;54.25;45.00;;;;;8.38;72.39;101025.56;5014657;28;45376;-73
2022/12/08 01:26:45;;;;;;;;;45.25;39.75;;;;;8.32;71.93;101026.72;4997010;28;45487;-72
2022/12/08 01:29:11;;;;;;;;;54.25;44.50;;;;;8.31;71.54;101024.13;5014459;28;45309;-73
2022/12/08 01:31:37;;;;;;;;;50.25;42.75;;;;;8.27;71.38;101023.41;5014466;28;45370;-73
2022/12/08 01:34:03;;;;;;;;;55.75;46.75;;;;;8.26;72.42;101013.72;4996857;28;45525;-73
2022/12/08 01:36:30;;;;;;;;;51.25;45.00;;;;;8.27;71.50;101015.41;5014297;28;45342;-73
2022/12/08 01:38:59;;;;;;;;;63.50;49.50;;;;;8.21;71.23;101008.59;5014669;28;46026;-72
2022/12/08 01:41:30;;;;;;;;;59.00;46.75;;;;;7.96;71.67;100982.25;5014379;28;45383;-73
2022/12/08 01:43:58;;;;;;;;;70.00;55.25;;;;;8.08;72.53;101012.72;5014130;28;45335;-73
2022/12/08 01:46:24;;;;;;;;;77.00;58.25;;;;;8.04;73.58;101020.00;5014372;28;45333;-73
2022/12/08 01:49:00;;;;;;;;;66.50;54.50;;;;;7.99;74.40;101014.03;5014346;28;45681;-73
2022/12/08 01:51:26;;;;;;;;;74.50;55.25;;;;;7.70;74.92;100971.00;5014263;28;45407;-73
2022/12/08 01:53:52;;;;;;;;;66.00;53.25;;;;;8.06;74.45;101014.63;5014740;28;45349;-73
2022/12/08 01:56:31;;;;;;;;;65.00;51.25;;;;;7.57;75.10;100937.94;5014523;28;45392;-73
2022/12/08 01:58:57;;;;;;;;;64.25;51.00;;;;;7.95;76.12;101025.72;5013278;28;45454;-73
2022/12/08 02:01:22;;;;;;;;;63.75;50.25;;;;;7.83;76.75;101021.78;5014058;28;45405;-73
2022/12/08 02:03:56;;;;;;;;;60.25;51.25;;;;;7.82;76.68;101024.53;5014427;28;45500;-73
2022/12/08 02:06:22;;;;;;;;;64.25;52.50;;;;;7.75;76.08;101014.16;5013965;28;45387;-72
2022/12/08 02:08:48;;;;;;;;;59.75;48.25;;;;;7.80;76.89;101007.78;5014051;28;46053;-73
2022/12/08 02:11:14;;;;;;;;;62.25;50.50;;;;;7.81;76.47;101009.50;5014312;28;45355;-72
2022/12/08 02:13:44;;;;;;;;;55.00;46.25;;;;;7.72;77.06;101006.31;5014398;28;45313;-73
2022/12/08 02:16:43;;;;;;;;;56.00;44.50;;;;;7.75;76.51;101014.16;5014387;28;45364;-72
2022/12/08 02:19:27;;;;;;;;;61.00;46.00;;;;;7.85;76.20;101011.94;5013795;28;46212;-72
2022/12/08 02:22:18;;;;;;;;;67.00;53.25;;;;;7.99;76.55;101011.38;5013708;28;45338;-72
2022/12/08 02:25:04;;;;;;;;;58.75;47.25;;;;;7.87;76.00;101011.91;4996605;28;45327;-73
2022/12/08 02:27:43;;;;;;;;;56.75;45.25;;;;;7.78;76.99;101015.81;5014258;28;45422;-72
2022/12/08 02:30:29;;;;;;;;;60.50;48.25;;;;;7.83;76.81;101018.28;5016344;28;47116;-72
2022/12/08 02:33:33;;;;;;;;;54.75;43.50;;;;;7.87;76.40;101019.88;5017190;28;45447;-72
2022/12/08 02:36:12;;;;;;;;;64.75;49.75;;;;;7.90;76.17;101011.75;4998914;28;47082;-72
2022/12/08 02:38:50;;;;;;;;;53.25;42.75;;;;;7.83;76.91;101010.31;5017611;28;45285;-72
2022/12/08 02:41:44;;;;;;;;;58.25;45.50;;;;;7.78;77.66;101010.50;5017037;28;46644;-72
2022/12/08 02:44:51;;;;;;;;;53.25;42.00;;;;;7.88;77.43;101006.53;4999210;28;45392;-72
2022/12/08 02:47:19;;;;;;;;;61.50;49.00;;;;;7.85;77.61;101008.44;4955973;28;45370;-72
2022/12/08 02:49:45;;;;;;;;;54.50;43.25;;;;;7.82;77.30;101000.63;4955374;28;45374;-72
2022/12/08 02:52:10;;;;;;;;;51.00;43.25;;;;;7.90;76.58;100995.81;4955342;28;46127;-72
2022/12/08 02:54:37;;;;;;;;;60.25;46.00;;;;;7.83;77.48;100991.72;4955654;28;45339;-72
2022/12/08 02:57:12;;;;;;;;;56.25;46.50;;;;;7.75;77.55;100987.59;4955815;28;45350;-72
2022/12/08 03:00:04;;;;;;;;;53.50;43.75;;;;;7.77;77.25;100984.88;4955787;28;45554;-72
2022/12/08 03:02:41;;;;;;;;;63.75;47.25;;;;;7.75;77.09;100984.94;4955640;28;45349;-72
2022/12/08 03:05:25;;;;;;;;;60.00;46.25;;;;;7.66;77.60;100976.50;4955480;28;45513;-72
2022/12/08 03:08:06;;;;;;;;;58.25;46.75;;;;;7.62;77.48;100978.44;4955329;28;45473;-72
2022/12/08 03:10:40;;;;;;;;;52.50;42.00;;;;;7.60;77.69;100975.00;4955671;28;45346;-72
2022/12/08 03:13:19;;;;;;;;;52.50;41.75;;;;;7.69;77.04;100974.59;4955529;28;47318;-72
2022/12/08 03:15:49;;;;;;;;;54.50;45.25;;;;;7.77;77.02;100971.59;4955488;28;45479;-72
2022/12/08 03:18:18;;;;;;;;;47.25;41.00;;;;;7.75;77.52;100971.66;4954988;28;45688;-72
2022/12/08 03:20:46;;;;;;;;;47.00;40.00;;;;;7.58;78.31;100968.88;4968160;28;45553;-72
2022/12/08 03:23:15;;;;;;;;;48.75;42.50;;;;;7.68;78.18;100961.38;4996908;28;45352;-71
2022/12/08 03:25:49;;;;;;;;;54.00;39.50;;;;;7.66;77.35;100958.78;4997025;28;45368;-71
2022/12/08 03:28:15;;;;;;;;;57.25;40.75;;;;;7.65;77.95;100962.38;4978934;28;45429;-73
2022/12/08 03:30:46;;;;;;;;;51.25;42.25;;;;;7.69;77.30;100947.16;5000903;28;45506;-71
2022/12/08 03:33:17;;;;;;;;;53.25;42.25;;;;;7.80;77.02;100950.22;5016362;28;46265;-72
2022/12/08 03:35:44;;;;;;;;;52.75;43.50;;;;;7.80;77.24;100955.53;5016333;28;45733;-73
2022/12/08 03:38:12;;;;;;;;;49.25;41.00;;;;;7.85;77.44;100948.19;5016342;28;45356;-73
2022/12/08 03:40:39;;;;;;;;;55.75;43.00;;;;;7.74;77.32;100919.47;5015681;28;45450;-73
2022/12/08 03:43:04;;;;;;;;;45.00;39.75;;;;;7.95;77.08;100937.16;5015905;28;45324;-73
2022/12/08 03:45:30;;;;;;;;;54.00;41.75;;;;;7.61;77.01;100881.13;5016657;28;45384;-72
2022/12/08 03:47:56;;;;;;;;;50.75;40.50;;;;;7.62;77.48;100882.84;5016147;28;45950;-73
2022/12/08 03:50:21;;;;;;;;;48.50;39.25;;;;;7.74;77.34;100930.09;5016407;28;45363;-73
2022/12/08 03:52:47;;;;;;;;;50.75;38.25;;;;;7.62;77.54;100927.97;5016237;28;46081;-73
2022/12/08 03:55:12;;;;;;;;;49.25;40.25;;;;;7.84;76.73;100924.38;5016198;28;45470;-73
2022/12/08 03:57:38;;;;;;;;;51.25;42.00;;;;;8.08;76.32;100927.72;5016398;28;45408;-73
2022/12/08 04:00:05;;;;;;;;;39.50;36.25;;;;;8.24;75.09;100926.06;5016065;28;45426;-73
2022/12/08 04:02:30;;;;;;;;;48.00;40.25;;;;;7.96;76.15;100923.81;5015770;28;45335;-73
2022/12/08 04:04:56;;;;;;;;;53.25;40.50;;;;;7.99;77.13;100915.72;5015886;28;45333;-73
2022/12/08 04:07:21;;;;;;;;;48.50;40.50;;;;;7.91;76.29;100917.88;5015674;28;45284;-73
2022/12/08 04:09:46;;;;;;;;;44.25;39.25;;;;;7.84;76.47;100919.06;4998200;28;45304;-73
2022/12/08 04:12:12;;;;;;;;;46.25;37.75;;;;;7.87;76.17;100914.47;5016385;28;46498;-73
2022/12/08 04:14:37;;;;;;;;;50.50;41.00;;;;;7.86;76.53;100915.41;5015571;28;45288;-73
2022/12/08 04:17:03;;;;;;;;;48.75;40.75;;;;;7.72;76.64;100878.84;5014754;28;45361;-73
2022/12/08 04:19:28;;;;;;;;;49.00;40.25;;;;;7.82;76.13;100905.84;5006141;28;45436;-73
2022/12/08 04:21:54;;;;;;;;;49.75;40.50;;;;;7.78;75.47;100898.09;5015246;28;46227;-73
2022/12/08 04:24:19;;;;;;;;;55.25;42.00;;;;;7.67;76.76;100907.41;5015612;28;45275;-73
2022/12/08 04:26:44;;;;;;;;;42.00;36.75;;;;;7.26;76.76;100833.13;5015784;28;45440;-73
2022/12/08 04:29:10;;;;;;;;;50.00;41.75;;;;;7.64;77.33;100898.69;5015220;28;45626;-73
2022/12/08 04:31:36;;;;;;;;;56.00;40.25;;;;;7.72;77.46;100885.94;5015071;28;46319;-73
2022/12/08 04:34:01;;;;;;;;;53.00;42.75;;;;;7.81;76.50;100895.31;5015179;28;45461;-73
2022/12/08 04:36:26;;;;;;;;;52.00;42.75;;;;;7.85;77.01;100889.78;5015561;28;45440;-73
2022/12/08 04:38:52;;;;;;;;;45.75;39.25;;;;;7.82;76.83;100887.25;5014821;28;45373;-73
2022/12/08 04:41:17;;;;;;;;;42.00;37.00;;;;;7.46;78.35;100881.81;5015245;28;46882;-72
2022/12/08 04:43:43;;;;;;;;;42.00;39.25;;;;;7.48;78.46;100885.28;5015324;28;45430;-73
2022/12/08 04:46:09;;;;;;;;;49.25;39.00;;;;;7.47;77.89;100878.22;5015013;28;45478;-73
2022/12/08 04:48:39;;;;;;;;;51.75;42.25;;;;;7.41;78.75;100884.69;4995340;28;45410;-73
2022/12/08 04:51:05;;;;;;;;;42.00;36.25;;;;;7.45;77.47;100880.06;4995592;28;45308;-73
2022/12/08 04:53:30;;;;;;;;;52.50;43.00;;;;;7.49;77.41;100881.66;4994878;28;45387;-73
2022/12/08 04:55:56;;;;;;;;;51.25;39.75;;;;;7.36;78.35;100882.22;5009445;28;45332;-73
2022/12/08 04:58:21;;;;;;;;;47.50;38.75;;;;;7.22;77.59;100873.97;4996295;28;45503;-73
2022/12/08 05:00:47;;;;;;;;;44.67;38.00;;;;;6.80;79.05;100841.28;5005658;28;46449;-73
2022/12/08 05:03:14;;;;;;;;;49.25;38.75;;;;;6.94;79.07;100871.63;5015014;28;45335;-73
2022/12/08 05:05:40;;;;;;;;;49.75;34.00;;;;;6.90;78.39;100869.13;5015130;28;45324;-73
2022/12/08 05:08:06;;;;;;;;;37.50;34.50;;;;;6.98;77.99;100881.22;5014466;28;45423;-73
2022/12/08 05:10:31;;;;;;;;;41.50;35.00;;;;;6.49;78.47;100800.16;5014457;28;46324;-73
2022/12/08 05:12:58;;;;;;;;;46.25;38.25;;;;;6.86;79.21;100856.06;5014988;28;45331;-73
2022/12/08 05:15:23;;;;;;;;;35.50;32.50;;;;;6.80;78.08;100851.00;5015076;28;45260;-73
2022/12/08 05:17:49;;;;;;;;;42.25;35.50;;;;;6.73;78.72;100866.31;5010229;28;45459;-73
2022/12/08 05:20:14;;;;;;;;;37.00;34.25;;;;;6.76;78.94;100865.31;5003403;28;46146;-73
2022/12/08 05:22:39;;;;;;;;;37.25;32.00;;;;;6.43;78.93;100795.09;4994897;28;45261;-73
2022/12/08 05:25:05;;;;;;;;;39.00;35.75;;;;;6.94;78.19;100864.56;4994914;28;45373;-73
2022/12/08 05:27:30;;;;;;;;;41.00;36.25;;;;;7.05;77.58;100862.31;4995852;28;45396;-73
2022/12/08 05:29:56;;;;;;;;;37.75;33.50;;;;;7.01;76.90;100863.38;5004480;28;46979;-73
2022/12/08 05:32:21;;;;;;;;;39.25;31.00;;;;;6.84;76.37;100856.13;4994457;28;45805;-73
2022/12/08 05:34:46;;;;;;;;;32.25;29.75;;;;;6.75;77.21;100853.88;5009466;28;45510;-73
2022/12/08 05:37:12;;;;;;;;;26.00;25.00;;;;;6.76;76.76;100860.03;5015049;28;45425;-73
2022/12/08 05:39:37;;;;;;;;;31.75;30.50;;;;;6.35;78.20;100807.78;5014458;28;45832;-73
2022/12/08 05:42:02;;;;;;;;;28.75;26.00;;;;;6.54;78.30;100860.91;5014361;28;45374;-73
2022/12/08 05:44:28;;;;;;;;;35.00;29.00;;;;;6.62;78.67;100863.25;5014482;28;45408;-73
2022/12/08 05:46:53;;;;;;;;;26.00;25.75;;;;;6.47;78.28;100862.94;5014614;28;45360;-73
2022/12/08 05:49:19;;;;;;;;;30.75;30.25;;;;;6.57;79.08;100861.66;5014525;28;45477;-73
2022/12/08 05:51:44;;;;;;;;;23.00;17.50;;;;;6.57;78.12;100860.78;5014168;28;45501;-73
2022/12/08 05:54:10;;;;;;;;;30.50;28.00;;;;;6.61;78.23;100854.41;5014521;28;45379;-73
2022/12/08 05:56:35;;;;;;;;;24.00;23.75;;;;;6.52;77.83;100839.75;5014478;28;45360;-73
2022/12/08 05:59:01;;;;;;;;;36.75;28.00;;;;;6.58;77.87;100859.84;4996191;28;46172;-73
2022/12/08 06:01:30;;;;;;;;;28.25;22.00;;;;;6.60;78.19;100860.66;5014410;28;45316;-73
2022/12/08 06:03:57;;;;;;;;;22.50;20.50;;;;;6.44;77.93;100839.22;5008360;28;45511;-73
2022/12/08 06:06:23;;;;;;;;;19.50;19.50;;;;;6.50;77.98;100859.31;5002830;28;45340;-73
2022/12/08 06:08:49;;;;;;;;;28.25;24.75;;;;;6.56;78.20;100859.06;4997609;28;45521;-73
2022/12/08 06:11:26;;;;;;;;;28.00;25.75;;;;;6.66;77.44;100844.50;5006931;28;45986;-73
2022/12/08 06:13:51;;;;;;;;;28.00;26.25;;;;;6.73;77.85;100853.06;4991821;28;45590;-73
2022/12/08 06:16:17;;;;;;;;;33.50;28.25;;;;;6.80;77.24;100843.94;5014875;28;45404;-73
2022/12/08 06:18:43;;;;;;;;;28.75;26.75;;;;;6.89;76.74;100846.16;5011579;28;46064;-73
2022/12/08 06:21:11;;;;;;;;;33.00;24.75;;;;;6.97;75.97;100840.56;5006281;28;45321;-73
2022/12/08 06:23:37;;;;;;;;;26.75;25.75;;;;;6.60;76.83;100770.53;4998085;28;45417;-73
2022/12/08 06:26:08;;;;;;;;;24.25;23.75;;;;;7.08;75.86;100834.78;4997652;28;45407;-73
2022/12/08 06:28:35;;;;;;;;;31.25;27.50;;;;;7.16;75.70;100837.13;5017083;28;45526;-73
2022/12/08 06:31:07;;;;;;;;;25.00;20.00;;;;;7.05;75.13;100835.78;5012124;28;45467;-73
2022/12/08 06:33:33;;;;;;;;;20.25;17.50;;;;;7.19;76.02;100836.97;5010451;28;45644;-73
2022/12/08 06:35:58;;;;;;;;;32.25;32.25;;;;;7.11;75.63;100825.84;5017178;28;45553;-74
2022/12/08 06:38:23;;;;;;;;;37.50;31.00;;;;;7.19;75.12;100834.31;5017235;28;45682;-72
2022/12/08 06:40:56;;;;;;;;;27.50;25.50;;;;;7.19;75.64;100831.66;4999257;28;45380;-72
2022/12/08 06:43:22;;;;;;;;;24.25;22.75;;;;;7.25;74.98;100826.09;5017674;28;45414;-71
2022/12/08 06:45:48;;;;;;;;;34.00;27.75;;;;;7.22;74.68;100828.88;5017074;28;45321;-71
2022/12/08 06:48:13;;;;;;;;;22.25;22.00;;;;;7.24;74.71;100827.03;5016732;28;45271;-72
2022/12/08 06:50:39;;;;;;;;;27.00;22.50;;;;;7.13;74.61;100827.50;5017511;28;45320;-72
2022/12/08 06:53:04;;;;;;;;;28.25;22.00;;;;;7.19;74.53;100827.25;5017380;28;45325;-71
2022/12/08 06:55:29;;;;;;;;;26.75;19.75;;;;;7.17;73.49;100834.38;4999454;28;45326;-71
2022/12/08 06:57:55;;;;;;;;;23.50;23.25;;;;;7.12;74.50;100817.81;4999194;28;45602;-72
2022/12/08 07:00:21;;;;;;;;;27.25;25.50;;;;;7.07;73.92;100823.31;5016816;28;45414;-71
2022/12/08 07:02:46;;;;;;;;;24.75;21.00;;;;;7.07;73.90;100817.13;5017376;28;45414;-71
2022/12/08 07:05:11;;;;;;;;;20.25;18.25;;;;;7.09;74.05;100814.44;5017551;28;45363;-72
2022/12/08 07:07:37;;;;;;;;;23.50;19.75;;;;;7.02;74.42;100805.88;4999449;28;48086;-72
2022/12/08 07:10:02;;;;;;;;;23.00;21.25;;;;;7.10;74.10;100817.03;5017804;28;45529;-72
2022/12/08 07:12:27;;;;;;;;;22.00;20.50;;;;;7.15;74.54;100820.31;5017628;28;45455;-72
2022/12/08 07:14:53;;;;;;;;;22.75;20.25;;;;;7.22;73.77;100816.47;5016498;28;45527;-72
2022/12/08 07:17:18;;;;;;;;;30.00;27.25;;;;;7.28;73.37;100820.66;5015965;28;46577;-72
2022/12/08 07:19:43;;;;;;;;;22.00;22.00;;;;;7.24;73.30;100813.75;5016832;28;45504;-72
2022/12/08 07:22:09;;;;;;;;;27.00;26.25;;;;;7.24;73.83;100814.59;5016966;28;45330;-72
2022/12/08 07:24:34;;;;;;;;;24.50;23.00;;;;;7.24;73.45;100814.59;5016317;28;45641;-72
2022/12/08 07:26:59;;;;;;;;;29.25;23.50;;;;;7.17;72.49;100796.41;5016459;28;46166;-72
2022/12/08 07:29:25;;;;;;;;;28.00;23.75;;;;;7.19;73.57;100810.44;5016894;28;45415;-72
2022/12/08 07:31:50;;;;;;;;;35.25;30.50;;;;;7.30;73.71;100818.81;5016739;28;45451;-72
2022/12/08 07:34:15;;;;;;;;;28.75;27.50;;;;;7.34;73.36;100814.19;5016530;28;45395;-72
2022/12/08 07:36:41;;;;;;;;;28.50;22.50;;;;;7.30;73.67;100823.22;5016380;28;45589;-72
2022/12/08 07:39:06;;;;;;;;;30.00;27.50;;;;;7.29;73.80;100824.16;5016662;28;45376;-72
2022/12/08 07:41:32;;;;;;;;;29.00;27.25;;;;;7.32;74.49;100822.22;5016719;28;45450;-72
2022/12/08 07:43:58;;;;;;;;;35.75;30.00;;;;;7.37;75.09;100824.69;5016284;28;45467;-72
2022/12/08 07:46:24;;;;;;;;;27.75;25.50;;;;;7.46;74.20;100831.38;5016242;28;45376;-72
2022/12/08 07:48:53;;;;;;;;;33.75;32.50;;;;;7.44;74.03;100826.13;5016519;28;45377;-72
2022/12/08 07:51:19;;;;;;;;;40.25;34.25;;;;;7.52;73.66;100828.47;5016630;28;45377;-72
2022/12/08 07:53:46;;;;;;;;;31.75;28.75;;;;;7.60;72.82;100821.00;4998328;28;45383;-72
2022/12/08 07:56:13;;;;;;;;;25.75;24.25;;;;;7.60;73.14;100815.69;4998486;28;47517;-72
2022/12/08 07:58:39;;;;;;;;;36.00;33.25;;;;;7.55;72.17;100823.84;5015960;28;45323;-72
2022/12/08 08:01:05;;;;;;;;;23.50;23.50;;;;;7.52;73.08;100813.38;4998138;28;45312;-72
2022/12/08 08:03:31;;;;;;;;;27.75;26.50;;;;;7.43;72.85;100803.19;5016339;28;45445;-72
2022/12/08 08:06:04;;;;;;;;;32.50;32.50;;;;;7.27;72.37;100786.22;5015990;28;45453;-72
2022/12/08 08:08:29;;;;;;;;;27.75;25.75;;;;;7.34;72.18;100793.84;5015530;28;45553;-72
2022/12/08 08:10:54;;;;;;;;;33.00;31.75;;;;;7.37;72.85;100790.19;5016049;28;45328;-72
2022/12/08 08:13:20;;;;;;;;;28.50;28.00;;;;;7.41;73.47;100795.28;5016083;28;45493;-72
2022/12/08 08:15:45;;;;;;;;;36.25;27.25;;;;;7.38;73.97;100798.09;5015617;28;46017;-72
2022/12/08 08:18:10;;;;;;;;;26.75;22.50;;;;;7.41;73.43;100795.28;5015983;28;45437;-72
2022/12/08 08:20:36;;;;;;;;;30.25;29.25;;;;;7.49;73.46;100796.72;5016280;28;45438;-72
2022/12/08 08:23:01;;;;;;;;;31.75;27.50;;;;;7.51;73.08;100793.06;5015496;28;45370;-72
2022/12/08 08:25:26;;;;;;;;;37.75;26.75;;;;;7.45;72.42;100793.38;5015901;28;47241;-72
2022/12/08 08:27:53;;;;;;;;;27.75;24.50;;;;;7.46;72.83;100796.88;4997740;28;45382;-72
2022/12/08 08:30:18;;;;;;;;;42.50;32.25;;;;;7.28;72.14;100772.88;5015994;28;45296;-72
2022/12/08 08:32:44;;;;;;;;;30.50;29.50;;;;;7.44;72.19;100798.72;4997827;28;45389;-72
2022/12/08 08:35:09;;;;;;;;;37.25;29.50;;;;;7.46;72.41;100797.72;5015649;28;45333;-72
2022/12/08 08:37:35;;;;;;;;;34.00;29.50;;;;;7.48;72.46;100795.88;5015504;28;45371;-72
2022/12/08 08:40:00;;;;;;;;;34.75;28.50;;;;;7.47;73.63;100799.44;4997976;28;45403;-72
2022/12/08 08:42:25;;;;;;;;;33.00;30.25;;;;;7.65;72.88;100783.59;5015632;28;45308;-72
2022/12/08 08:44:51;;;;;;;;;31.50;27.75;;;;;7.66;71.60;100782.69;4997757;28;47246;-72
2022/12/08 08:47:17;;;;;;;;;31.25;30.00;;;;;7.22;72.27;100702.38;5015284;28;45246;-72
2022/12/08 08:49:43;;;;;;;;;36.50;32.50;;;;;7.70;72.10;100774.50;4997716;28;45373;-72
2022/12/08 08:52:09;;;;;;;;;39.25;34.50;;;;;7.78;71.57;100773.28;4997394;28;45385;-72
2022/12/08 08:54:34;;;;;;;;;39.25;33.00;;;;;7.79;71.79;100767.03;5015212;28;46216;-72
2022/12/08 08:57:00;;;;;;;;;35.00;32.50;;;;;7.67;71.44;100774.63;5015336;28;45261;-72
2022/12/08 08:59:27;;;;;;;;;38.75;31.50;;;;;7.64;72.21;100769.47;5015370;28;45525;-72
2022/12/08 09:01:53;;;;;;;;;35.50;29.50;;;;;7.68;72.38;100772.84;5015315;28;45443;-72
2022/12/08 09:04:20;;;;;;;;;33.75;26.50;;;;;7.64;72.34;100772.13;5015198;28;45451;-72
2022/12/08 09:06:46;;;;;;;;;32.50;29.50;;;;;7.69;71.64;100767.47;5014918;28;45429;-72
2022/12/08 09:09:13;;;;;;;;;26.75;25.25;;;;;7.60;70.28;100773.22;5015062;28;45483;-72
2022/12/08 09:11:38;;;;;;;;;27.75;25.25;;;;;7.50;71.29;100778.06;5014939;28;45494;-72
2022/12/08 09:14:03;;;;;;;;;26.00;24.50;;;;;7.51;70.60;100774.50;5014967;28;47046;-72
2022/12/08 09:16:29;;;;;;;;;33.75;33.00;;;;;7.47;71.53;100772.06;5015143;28;45430;-72
2022/12/08 09:18:54;;;;;;;;;38.00;31.75;;;;;7.44;70.83;100782.78;5015037;28;45860;-72
2022/12/08 09:21:23;;;;;;;;;25.75;24.00;;;;;7.35;71.21;100776.13;5014796;28;45405;-70
2022/12/08 09:23:50;;;;;;;;;29.50;28.00;;;;;7.29;72.28;100769.31;5014680;28;46335;-72
2022/12/08 09:26:16;;;;;;;;;43.00;33.25;;;;;7.32;72.41;100755.88;5014777;28;45386;-72
2022/12/08 09:28:45;;;;;;;;;35.25;31.00;;;;;7.37;71.58;100777.78;5014651;28;45315;-72
2022/12/08 09:31:13;;;;;;;;;32.50;31.00;;;;;7.26;72.01;100753.53;5014923;28;45404;-72
2022/12/08 09:33:39;;;;;;;;;32.50;30.25;;;;;7.41;72.84;100774.06;5014731;28;45506;-72
2022/12/08 09:36:05;;;;;;;;;36.50;30.25;;;;;7.45;71.65;100750.91;5014134;28;45451;-72
2022/12/08 09:38:31;;;;;;;;;34.50;25.00;;;;;7.65;72.46;100771.22;5014247;28;45492;-72
2022/12/08 09:40:57;;;;;;;;;29.00;28.00;;;;;7.58;70.85;100769.75;5014971;28;45316;-72
2022/12/08 09:43:40;;;;;;;;;46.00;36.75;;;;;7.61;70.79;100766.94;5014716;28;45275;-72
2022/12/08 09:46:09;;;;;;;;;29.25;27.25;;;;;7.71;71.45;100770.06;5014744;28;45375;-72
2022/12/08 09:48:39;;;;;;;;;26.75;24.75;;;;;7.77;71.03;100771.56;5014486;28;45494;-72
2022/12/08 09:51:05;;;;;;;;;28.75;27.50;;;;;7.67;71.61;100733.97;5014567;28;45376;-72
2022/12/08 09:53:44;;;;;;;;;32.75;32.25;;;;;7.46;70.64;100691.53;5014789;28;46263;-72
2022/12/08 09:56:16;;;;;;;;;29.50;29.00;;;;;7.84;70.17;100762.34;4996934;28;45333;-72
2022/12/08 09:59:00;;;;;;;;;27.25;24.00;;;;;7.89;70.33;100768.31;5014674;28;45307;-72
2022/12/08 10:01:31;;;;;;;;;28.25;26.50;;;;;7.84;69.82;100755.28;5015549;28;45309;-72
2022/12/08 10:03:57;;;;;;;;;36.00;32.25;;;;;7.74;70.01;100732.72;5015294;28;45447;-72
2022/12/08 10:06:38;;;;;;;;;33.50;28.00;;;;;7.95;69.37;100746.78;4997446;28;46365;-72
2022/12/08 10:09:25;;;;;;;;;28.00;26.75;;;;;7.99;70.31;100748.34;4997157;28;45413;-72
2022/12/08 10:12:22;;;;;;;;;32.00;28.00;;;;;8.00;69.15;100743.88;5015656;28;45204;-72
2022/12/08 10:15:20;;;;;;;;;29.25;27.50;;;;;8.00;68.92;100743.88;5011184;28;46316;-72
2022/12/08 10:17:49;;;;;;;;;41.50;34.00;;;;;7.88;69.19;100730.28;4952717;28;45405;-72
2022/12/08 10:20:18;;;;;;;;;28.50;27.00;;;;;8.08;69.07;100739.06;4952608;28;45424;-72
2022/12/08 10:22:47;;;;;;;;;30.25;30.25;;;;;7.90;68.70;100698.34;4953384;28;45424;-73
2022/12/08 10:25:19;;;;;;;;;33.25;32.00;;;;;8.19;68.79;100734.09;4952850;28;45363;-72
2022/12/08 10:27:48;;;;;;;;;32.00;31.00;;;;;8.29;69.50;100738.94;4952688;28;45579;-72
2022/12/08 10:30:16;;;;;;;;;28.00;28.00;;;;;8.20;68.14;100714.53;4953030;28;45315;-72
2022/12/08 10:32:45;;;;;;;;;24.75;23.75;;;;;8.28;67.99;100724.78;4952739;28;45483;-72
2022/12/08 10:35:14;;;;;;;;;32.25;28.50;;;;;8.32;68.17;100720.19;4952688;28;45447;-72
2022/12/08 10:37:40;;;;;;;;;34.25;30.75;;;;;8.17;68.16;100689.94;4952658;28;45446;-73
2022/12/08 10:40:12;;;;;;;;;35.50;30.50;;;;;8.35;67.06;100712.06;4952862;28;45537;-70
2022/12/08 10:42:50;;;;;;;;;32.50;29.00;;;;;8.24;67.93;100713.44;4952752;28;45457;-72
2022/12/08 10:45:31;;;;;;;;;29.50;27.25;;;;;7.54;67.13;100580.56;4952601;28;46702;-72
2022/12/08 10:48:01;;;;;;;;;30.75;29.00;;;;;8.36;67.64;100701.34;4936036;28;45481;-72
2022/12/08 10:50:33;;;;;;;;;35.00;28.25;;;;;8.35;67.92;100702.28;4954053;28;45524;-72
2022/12/08 10:53:06;;;;;;;;;30.50;25.25;;;;;8.28;67.48;100705.34;4969699;28;45409;-72
2022/12/08 10:55:43;;;;;;;;;33.00;31.50;;;;;8.10;68.03;100681.41;4979560;28;48353;-72
2022/12/08 10:58:34;;;;;;;;;32.00;30.00;;;;;8.30;68.72;100698.13;4997195;28;45334;-72
2022/12/08 11:01:17;;;;;;;;;37.50;31.00;;;;;8.33;67.84;100692.69;4997248;28;45356;-72
2022/12/08 11:04:01;;;;;;;;;31.75;29.25;;;;;8.37;68.12;100687.13;5009522;28;45447;-72
2022/12/08 11:06:30;;;;;;;;;32.75;31.00;;;;;8.39;67.43;100682.59;5016920;28;45587;-72
2022/12/08 11:09:02;;;;;;;;;30.00;27.50;;;;;8.41;67.57;100675.38;4998989;28;45333;-72
2022/12/08 11:11:57;;;;;;;;;16.75;10.75;;;;;8.38;67.60;100675.56;5017186;28;45354;-72
2022/12/08 11:14:29;;;;;;;;;35.50;31.75;;;;;8.34;68.15;100667.81;5003696;28;45471;-72
2022/12/08 11:17:08;;;;;;;;;33.75;31.50;;;;;8.50;68.06;100659.94;5016860;28;45327;-72
2022/12/08 11:19:41;;;;;;;;;31.00;28.75;;;;;8.51;67.38;100659.84;4997047;28;45471;-73
2022/12/08 11:22:29;;;;;;;;;32.25;30.00;;;;;8.50;67.63;100659.94;4997026;28;45445;-72
2022/12/08 11:25:16;;;;;;;;;30.75;29.00;;;;;8.39;67.39;100656.03;4996944;28;45657;-72
2022/12/08 11:27:44;;;;;;;;;31.00;27.25;;;;;8.23;67.65;100617.84;5008429;28;46402;-72
2022/12/08 11:30:24;;;;;;;;;34.50;29.50;;;;;8.47;67.28;100649.47;5016649;28;45499;-72